Time;durP1;ratioP1;P1;durP2;ratioP2;P2;SDS_P1;SDS_P2;PMS_P1;PMS_P2;Temp;Humidity;BMP_temperature;BMP_pressure;BME280_temperature;BME280_humidity;BME280_pressure;Samples;Min_cycle;Max_cycle;Signal;HPM_P1;HPM_P2
2021/01/26 00:01:30;;;;;;;14.10;7.57;;;;;;;-0.30;100.00;101836.58;1772795;81;26671;-82
2021/01/26 00:04:00;;;;;;;11.33;7.60;;;;;;;-0.23;100.00;101832.03;1772846;80;26286;-82
2021/01/26 00:06:30;;;;;;;10.33;7.60;;;;;;;-0.09;100.00;101832.54;1766469;81;26235;-82
2021/01/26 00:08:59;;;;;;;10.13;7.47;;;;;;;-0.19;100.00;101832.83;1797940;78;26777;-82
2021/01/26 00:11:29;;;;;;;10.07;6.63;;;;;;;-0.23;100.00;101836.13;1798839;79;26213;-82
2021/01/26 00:13:59;;;;;;;10.50;7.53;;;;;;;-0.12;100.00;101837.84;1738105;81;26628;-82
2021/01/26 00:16:29;;;;;;;10.47;7.17;;;;;;;-0.13;100.00;101836.69;1780755;80;26297;-82
2021/01/26 00:18:59;;;;;;;13.07;7.83;;;;;;;-0.29;100.00;101840.45;1785180;80;26208;-82
2021/01/26 00:21:28;;;;;;;10.30;7.27;;;;;;;-0.24;100.00;101841.25;1775004;80;26231;-82
2021/01/26 00:23:59;;;;;;;9.10;5.93;;;;;;;-0.18;100.00;101848.70;1772883;81;26234;-83
2021/01/26 00:26:29;;;;;;;10.80;6.63;;;;;;;-0.31;100.00;101848.01;1773544;81;26703;-82
2021/01/26 00:28:59;;;;;;;10.93;7.13;;;;;;;-0.20;100.00;101849.39;1775107;80;26291;-81
2021/01/26 00:31:29;;;;;;;9.97;7.10;;;;;;;-0.50;100.00;101856.75;1775230;80;26276;-81
2021/01/26 00:33:59;;;;;;;8.83;6.67;;;;;;;-0.33;100.00;101854.16;1775076;80;26200;-81
2021/01/26 00:36:30;;;;;;;10.10;7.17;;;;;;;-0.35;100.00;101858.98;1775233;80;26213;-81
2021/01/26 00:39:00;;;;;;;12.63;6.90;;;;;;;-0.23;100.00;101854.73;1775122;80;26220;-81
2021/01/26 00:41:29;;;;;;;9.27;6.67;;;;;;;-0.22;100.00;101859.16;1811227;78;26201;-80
2021/01/26 00:43:59;;;;;;;11.27;7.50;;;;;;;-0.35;100.00;101860.34;1775227;80;26365;-81
2021/01/26 00:46:29;;;;;;;12.10;7.70;;;;;;;-0.58;100.00;101854.97;1811778;79;26201;-81
2021/01/26 00:48:59;;;;;;;10.07;7.27;;;;;;;-0.34;100.00;101862.02;1773015;80;26283;-81
2021/01/26 00:51:29;;;;;;;11.70;7.33;;;;;;;-0.51;100.00;101866.81;1773007;80;26746;-81
2021/01/26 00:53:59;;;;;;;14.10;8.30;;;;;;;-0.49;100.00;101858.45;1762013;81;26224;-80
2021/01/26 00:56:31;;;;;;;11.37;7.80;;;;;;;-0.38;100.00;101855.23;1774044;81;26286;-80
2021/01/26 00:59:01;;;;;;;10.43;7.73;;;;;;;-0.52;100.00;101860.20;1775242;80;26500;-80
2021/01/26 01:01:31;;;;;;;10.77;8.00;;;;;;;-0.65;100.00;101859.50;1810936;78;26201;-80
2021/01/26 01:04:01;;;;;;;13.33;8.30;;;;;;;-0.57;100.00;101858.55;1775042;81;26660;-81
2021/01/26 01:06:31;;;;;;;12.27;9.03;;;;;;;-0.65;100.00;101865.47;1775101;80;26740;-80
2021/01/26 01:09:01;;;;;;;12.07;8.23;;;;;;;-0.77;100.00;101866.42;1775190;79;26264;-80
2021/01/26 01:11:31;;;;;;;13.83;8.73;;;;;;;-0.62;100.00;101869.17;1809228;79;26609;-80
2021/01/26 01:14:01;;;;;;;9.67;7.20;;;;;;;-0.53;100.00;101870.78;1775162;81;26721;-81
2021/01/26 01:16:31;;;;;;;12.37;7.53;;;;;;;-0.37;100.00;101861.03;1809396;78;26640;-81
2021/01/26 01:19:01;;;;;;;13.90;8.27;;;;;;;-0.44;100.00;101864.20;1775091;81;26359;-81
2021/01/26 01:21:31;;;;;;;13.07;8.10;;;;;;;-0.24;100.00;101871.28;1810039;78;26205;-81
2021/01/26 01:24:00;;;;;;;9.90;7.90;;;;;;;-0.11;100.00;101867.37;1773314;79;26307;-81
2021/01/26 01:26:30;;;;;;;11.63;8.13;;;;;;;-0.11;100.00;101860.54;1773106;80;26652;-80
2021/01/26 01:29:00;;;;;;;13.03;9.10;;;;;;;-0.13;100.00;101866.73;1782320;80;26197;-81
2021/01/26 01:31:30;;;;;;;11.17;8.30;;;;;;;-0.13;100.00;101867.55;1775127;80;26221;-81
2021/01/26 01:34:00;;;;;;;13.17;8.80;;;;;;;-0.21;100.00;101865.44;1775236;80;26197;-81
2021/01/26 01:36:30;;;;;;;13.77;8.00;;;;;;;-0.09;100.00;101868.04;1809290;79;26737;-82
2021/01/26 01:39:00;;;;;;;10.97;8.03;;;;;;;-0.24;100.00;101868.04;1775256;81;26291;-81
2021/01/26 01:41:34;;;;;;;10.90;8.30;;;;;;;-0.38;100.00;101873.49;1775075;80;26680;-81
2021/01/26 01:44:06;;;;;;;12.70;8.17;;;;;;;-0.55;100.00;101879.14;1775035;80;26728;-80
2021/01/26 01:46:41;;;;;;;11.33;7.83;;;;;;;-0.43;100.00;101880.91;1809217;78;26213;-81
2021/01/26 01:49:14;;;;;;;13.13;8.43;;;;;;;-0.46;100.00;101880.75;1775081;81;26298;-79
2021/01/26 01:51:46;;;;;;;12.33;8.67;;;;;;;-0.39;100.00;101883.59;1775158;80;26266;-80
2021/01/26 01:54:19;;;;;;;14.40;8.40;;;;;;;-0.49;100.00;101885.23;1775073;80;26652;-80
2021/01/26 01:56:52;;;;;;;12.00;8.23;;;;;;;-0.48;100.00;101892.39;1775224;80;26317;-80
2021/01/26 01:59:25;;;;;;;12.17;8.33;;;;;;;-0.50;100.00;101886.26;1809412;78;26682;-80
2021/01/26 02:01:55;;;;;;;13.33;8.10;;;;;;;-0.40;100.00;101895.55;1812287;78;26279;-81
2021/01/26 02:04:26;;;;;;;11.50;8.47;;;;;;;-0.42;100.00;101892.66;1782059;80;26286;-80
2021/01/26 02:06:58;;;;;;;14.00;8.37;;;;;;;-0.58;100.00;101886.87;1774953;80;26748;-81
2021/01/26 02:09:30;;;;;;;8.93;7.33;;;;;;;-0.67;100.00;101884.73;1774993;79;26353;-80
2021/01/26 02:12:00;;;;;;;13.23;8.47;;;;;;;-0.74;100.00;101891.98;1813322;78;26256;-82
2021/01/26 02:14:33;;;;;;;12.07;8.70;;;;;;;-0.42;100.00;101894.02;1779000;80;26197;-81
2021/01/26 02:17:06;;;;;;;13.90;8.07;;;;;;;-0.42;100.00;101903.56;1775037;81;26252;-80
2021/01/26 02:20:22;;;;;;;14.10;9.03;;;;;;;-0.67;100.00;101900.26;1809597;79;26204;-80
2021/01/26 02:23:35;;;;;;;10.10;7.73;;;;;;;-0.67;100.00;101915.27;1750973;80;26639;-80
2021/01/26 02:26:24;;;;;;;11.13;8.20;;;;;;;-0.66;100.00;101912.36;1808394;78;26205;-81
2021/01/26 02:29:02;;;;;;;11.27;7.47;;;;;;;-0.75;100.00;101914.83;1775048;80;26648;-82
2021/01/26 02:31:48;;;;;;;14.57;7.67;;;;;;;-0.75;100.00;101910.73;1775160;80;26212;-82
2021/01/26 02:34:58;;;;;;;11.20;8.83;;;;;;;-0.66;100.00;101909.63;1811344;78;26210;-82
2021/01/26 02:38:07;;;;;;;12.10;8.27;;;;;;;-0.49;100.00;101913.89;1772989;80;26290;-82
2021/01/26 02:40:40;;;;;;;10.60;8.53;;;;;;;-0.61;100.00;101906.34;1775025;81;26213;-82
2021/01/26 02:43:35;;;;;;;10.37;7.80;;;;;;;-0.49;100.00;101912.52;1814429;78;26644;-82
2021/01/26 02:46:11;;;;;;;13.70;8.60;;;;;;;-0.56;100.00;101908.01;1784047;79;26387;-82
2021/01/26 02:49:09;;;;;;;10.23;8.00;;;;;;;-0.50;100.00;101906.72;1775218;79;26210;-81
2021/01/26 02:51:48;;;;;;;14.40;8.60;;;;;;;-0.57;100.00;101897.60;1809184;79;26229;-82
2021/01/26 02:54:23;;;;;;;11.27;8.80;;;;;;;-0.58;100.00;101899.99;1775430;80;26200;-82
2021/01/26 02:56:58;;;;;;;11.23;7.83;;;;;;;-0.61;100.00;101895.44;1810146;79;26491;-81
2021/01/26 02:59:33;;;;;;;10.70;8.33;;;;;;;-0.77;100.00;101899.70;1745569;82;26228;-81
2021/01/26 03:02:08;;;;;;;14.23;7.97;;;;;;;-0.81;100.00;101906.55;1775169;80;26341;-81
2021/01/26 03:04:41;;;;;;;12.27;8.43;;;;;;;-0.79;100.00;101897.66;1771500;81;26227;-81
2021/01/26 03:07:13;;;;;;;12.77;8.80;;;;;;;-0.60;100.00;101903.95;1774519;81;26212;-81
2021/01/26 03:09:46;;;;;;;12.37;8.03;;;;;;;-0.47;100.00;101899.52;1775169;79;26299;-81
2021/01/26 03:12:19;;;;;;;11.07;7.67;;;;;;;-0.46;100.00;101903.10;1811170;79;26279;-81
2021/01/26 03:14:52;;;;;;;13.17;8.13;;;;;;;-0.46;100.00;101899.86;1775027;81;26201;-81
2021/01/26 03:17:27;;;;;;;14.20;8.83;;;;;;;-0.31;100.00;101906.70;1809056;78;26221;-81
2021/01/26 03:20:01;;;;;;;11.43;8.00;;;;;;;-0.66;100.00;101903.32;1745791;81;26326;-81
2021/01/26 03:22:31;;;;;;;10.03;7.87;;;;;;;-0.33;100.00;101901.93;1775047;80;26208;-82
2021/01/26 03:25:04;;;;;;;11.17;8.20;;;;;;;-0.64;100.00;101897.18;1809269;78;26742;-82
2021/01/26 03:27:37;;;;;;;11.60;8.20;;;;;;;-0.76;100.00;101898.13;1774920;81;26256;-81
2021/01/26 03:30:11;;;;;;;11.97;8.80;;;;;;;-0.41;100.00;101897.94;1775134;80;26290;-82
2021/01/26 03:32:44;;;;;;;14.17;8.23;;;;;;;-0.54;100.00;101897.22;1775116;80;26294;-82
2021/01/26 03:35:16;;;;;;;12.33;8.90;;;;;;;-0.57;100.00;101896.75;1809785;78;26643;-83
2021/01/26 03:37:50;;;;;;;11.07;7.93;;;;;;;-0.50;100.00;101905.36;1774969;80;26216;-82
2021/01/26 03:40:20;;;;;;;16.53;9.83;;;;;;;-0.56;100.00;101895.18;1766716;80;26674;-82
2021/01/26 03:42:50;;;;;;;13.60;8.83;;;;;;;-0.69;100.00;101897.73;1774451;80;26223;-82
2021/01/26 03:45:20;;;;;;;12.83;8.57;;;;;;;-0.51;100.00;101899.56;1764098;81;26314;-82
2021/01/26 03:47:57;;;;;;;12.80;8.10;;;;;;;-0.56;100.00;101895.18;1763852;81;26287;-82
2021/01/26 03:50:34;;;;;;;12.17;8.07;;;;;;;-0.62;100.00;101896.46;1764119;81;26379;-83
2021/01/26 03:53:36;;;;;;;13.07;8.30;;;;;;;-0.74;100.00;101891.98;1763918;80;26725;-84
2021/01/26 03:56:11;;;;;;;13.50;8.93;;;;;;;-0.70;100.00;101893.81;1772936;81;26330;-83
2021/01/26 03:58:46;;;;;;;13.17;8.73;;;;;;;-0.73;100.00;101896.93;1773088;80;26331;-83
2021/01/26 04:01:21;;;;;;;12.40;8.50;;;;;;;-0.75;100.00;101896.25;1771035;81;26224;-83
2021/01/26 04:03:58;;;;;;;12.77;8.80;;;;;;;-0.87;100.00;101900.47;1775169;81;26635;-82
2021/01/26 04:06:33;;;;;;;14.87;9.97;;;;;;;-0.87;100.00;101903.19;1774900;80;26624;-82
2021/01/26 04:09:06;;;;;;;12.93;9.17;;;;;;;-0.71;100.00;101897.58;1811842;78;26635;-83
2021/01/26 04:11:41;;;;;;;11.93;8.03;;;;;;;-0.72;100.00;101900.81;1774034;79;26731;-82
2021/01/26 04:14:15;;;;;;;12.30;8.63;;;;;;;-0.44;100.00;101916.57;1773328;80;26637;-83
2021/01/26 04:16:47;;;;;;;13.00;9.20;;;;;;;-0.78;100.00;101918.45;1762355;81;26733;-83
2021/01/26 04:19:21;;;;;;;13.77;9.20;;;;;;;-0.91;100.00;101919.08;1773011;79;26290;-82
2021/01/26 04:21:52;;;;;;;16.10;8.87;;;;;;;-0.88;100.00;101923.30;1762670;81;26318;-82
2021/01/26 04:24:22;;;;;;;12.70;8.93;;;;;;;-0.83;100.00;101923.09;1775149;81;26719;-82
2021/01/26 04:26:51;;;;;;;11.40;8.80;;;;;;;-0.77;100.00;101919.61;1814378;78;26341;-82
2021/01/26 04:29:24;;;;;;;12.77;9.23;;;;;;;-0.72;100.00;101917.70;1775371;80;26201;-82
2021/01/26 04:31:55;;;;;;;13.00;8.90;;;;;;;-0.83;100.00;101914.91;1812478;78;26331;-82
2021/01/26 04:34:25;;;;;;;12.27;9.50;;;;;;;-0.74;100.00;101919.77;1775264;80;26684;-83
2021/01/26 04:36:55;;;;;;;12.17;8.77;;;;;;;-0.69;100.00;101913.25;1775213;80;26333;-82
2021/01/26 04:39:25;;;;;;;13.43;9.03;;;;;;;-0.71;100.00;101911.21;1775244;80;26236;-83
2021/01/26 04:41:57;;;;;;;16.80;9.97;;;;;;;-0.66;100.00;101915.60;1813967;78;26327;-83
2021/01/26 04:44:34;;;;;;;14.90;10.17;;;;;;;-0.57;100.00;101914.48;1775212;80;26209;-83
2021/01/26 04:47:12;;;;;;;12.73;9.23;;;;;;;-0.64;100.00;101912.19;1812618;78;26249;-82
2021/01/26 04:49:48;;;;;;;13.07;8.57;;;;;;;-0.61;100.00;101909.92;1812517;78;26292;-82
2021/01/26 04:52:24;;;;;;;12.50;8.87;;;;;;;-0.66;100.00;101908.78;1775020;80;26785;-82
2021/01/26 04:55:02;;;;;;;15.30;9.63;;;;;;;-0.58;100.00;101912.79;1813459;78;26260;-82
2021/01/26 04:57:39;;;;;;;17.87;9.73;;;;;;;-0.53;100.00;101915.81;1813881;78;26666;-82
2021/01/26 05:00:18;;;;;;;12.50;8.93;;;;;;;-0.50;100.00;101923.61;1801302;77;937214;-80
2021/01/26 05:03:01;;;;;;;14.13;9.50;;;;;;;-0.30;100.00;101919.28;1811316;79;26209;-81
2021/01/26 05:05:34;;;;;;;16.00;9.47;;;;;;;-0.53;100.00;101922.12;1811183;78;26702;-82
2021/01/26 05:08:09;;;;;;;15.43;9.30;;;;;;;-0.61;100.00;101917.26;1775556;80;26248;-81
2021/01/26 05:10:41;;;;;;;13.53;9.03;;;;;;;-0.53;100.00;101915.81;1811322;79;26649;-81
2021/01/26 05:13:16;;;;;;;16.13;10.40;;;;;;;-0.48;100.00;101914.22;1811079;78;26722;-81
2021/01/26 05:15:49;;;;;;;13.93;9.33;;;;;;;-0.47;100.00;101919.98;1775519;81;26301;-81
2021/01/26 05:18:22;;;;;;;13.60;9.27;;;;;;;-0.56;100.00;101914.83;1819024;78;26660;-81
2021/01/26 05:20:56;;;;;;;11.20;9.37;;;;;;;-0.49;100.00;101917.98;1773212;81;26279;-81
2021/01/26 05:23:30;;;;;;;13.50;8.83;;;;;;;-0.65;100.00;101911.84;1773865;81;26675;-81
2021/01/26 05:26:00;;;;;;;14.33;10.27;;;;;;;-0.59;100.00;101913.30;1775137;81;26197;-82
2021/01/26 05:28:30;;;;;;;13.77;9.33;;;;;;;-0.49;100.00;101913.03;1775176;80;26731;-81
2021/01/26 05:31:08;;;;;;;12.67;10.13;;;;;;;-0.44;100.00;101907.87;1814186;79;26635;-82
2021/01/26 05:33:38;;;;;;;13.90;9.57;;;;;;;-0.47;100.00;101919.14;1775446;81;26291;-82
2021/01/26 05:36:09;;;;;;;12.73;9.43;;;;;;;-0.46;100.00;101917.59;1813657;79;26186;-82
2021/01/26 05:38:40;;;;;;;13.13;9.87;;;;;;;-0.48;100.00;101922.41;1775399;80;26667;-81
2021/01/26 05:41:13;;;;;;;14.50;9.70;;;;;;;-0.38;100.00;101918.02;1775464;80;26255;-82
2021/01/26 05:43:43;;;;;;;13.20;9.70;;;;;;;-0.32;100.00;101924.63;1775154;80;26376;-81
2021/01/26 05:46:31;;;;;;;13.90;9.57;;;;;;;-0.30;100.00;101923.93;1775075;80;26710;-82
2021/01/26 05:49:01;;;;;;;15.73;10.07;;;;;;;-0.14;100.00;101916.91;1775217;81;26291;-83
2021/01/26 05:51:32;;;;;;;15.43;9.40;;;;;;;-0.05;100.00;101916.62;1775168;80;26670;-82
2021/01/26 05:54:05;;;;;;;14.87;10.20;;;;;;;0.07;100.00;101914.25;1775269;80;26279;-82
2021/01/26 05:56:36;;;;;;;16.40;9.87;;;;;;;0.01;100.00;101913.62;1820041;79;26227;-82
2021/01/26 05:59:23;;;;;;;15.10;10.53;;;;;;;0.07;100.00;101914.77;1774247;81;26275;-82
2021/01/26 06:01:54;;;;;;;15.47;11.13;;;;;;;-0.02;100.00;101913.50;1811666;78;26701;-82
2021/01/26 06:04:30;;;;;;;16.87;11.00;;;;;;;0.07;100.00;101916.12;1775427;80;26664;-82
2021/01/26 06:07:02;;;;;;;15.50;10.13;;;;;;;0.04;100.00;101911.06;1775220;80;26318;-82
2021/01/26 06:09:35;;;;;;;16.83;10.73;;;;;;;0.06;100.00;101911.70;1813746;79;26213;-81
2021/01/26 06:12:14;;;;;;;17.77;11.17;;;;;;;0.12;100.00;101917.27;1775100;79;26387;-82
2021/01/26 06:14:46;;;;;;;20.57;11.50;;;;;;;0.17;100.00;101918.88;1775102;80;26232;-82
2021/01/26 06:17:22;;;;;;;13.23;10.30;;;;;;;0.15;100.00;101918.23;1820568;79;26213;-82
2021/01/26 06:20:07;;;;;;;16.63;10.10;;;;;;;0.22;100.00;101912.84;1773794;81;26236;-82
2021/01/26 06:22:37;;;;;;;15.70;11.10;;;;;;;0.23;100.00;101922.22;1774945;81;26747;-82
2021/01/26 06:25:12;;;;;;;14.77;10.10;;;;;;;0.28;100.00;101928.48;1775132;80;26245;-81
2021/01/26 06:27:55;;;;;;;16.40;11.20;;;;;;;0.24;100.00;101918.46;1820021;78;26647;-82
2021/01/26 06:30:40;;;;;;;15.23;9.97;;;;;;;0.36;100.00;101913.34;1773002;81;26306;-82
2021/01/26 06:33:40;;;;;;;16.13;11.00;;;;;;;0.33;100.00;101913.73;1775118;81;26209;-82
2021/01/26 06:36:35;;;;;;;14.43;10.93;;;;;;;0.39;100.00;101910.20;1819987;78;26702;-83
2021/01/26 06:39:12;;;;;;;18.53;10.00;;;;;;;0.36;100.00;101916.92;1771906;81;26283;-82
2021/01/26 06:42:03;;;;;;;14.10;10.60;;;;;;;0.31;100.00;101918.52;1820717;78;26275;-83
2021/01/26 06:44:57;;;;;;;16.33;10.60;;;;;;;0.28;100.00;101916.19;1773651;81;26676;-83
2021/01/26 06:47:54;;;;;;;16.50;10.60;;;;;;;0.24;100.00;101917.09;1817009;78;26712;-81
2021/01/26 06:50:32;;;;;;;13.03;9.47;;;;;;;0.24;100.00;101908.90;1772998;81;26762;-81
2021/01/26 06:53:09;;;;;;;15.30;10.10;;;;;;;0.30;100.00;101913.58;1766961;81;26639;-82
2021/01/26 06:56:08;;;;;;;14.10;9.17;;;;;;;0.24;100.00;101908.90;1766772;81;26232;-82
2021/01/26 06:59:05;;;;;;;12.63;9.93;;;;;;;0.22;100.00;101899.18;1772980;81;26205;-82
2021/01/26 07:02:16;;;;;;;15.27;10.13;;;;;;;0.29;100.00;101899.61;1775146;81;26256;-82
2021/01/26 07:05:14;;;;;;;15.93;10.73;;;;;;;0.35;100.00;101904.28;1811156;78;26209;-81
2021/01/26 07:08:09;;;;;;;19.07;11.10;;;;;;;0.41;100.00;101913.61;1772602;80;26287;-82
2021/01/26 07:10:55;;;;;;;17.20;12.37;;;;;;;0.47;100.00;101922.42;1774212;80;26197;-82
2021/01/26 07:13:34;;;;;;;13.33;10.13;;;;;;;0.50;100.00;101915.19;1812967;78;27203;-81
2021/01/26 07:16:17;;;;;;;18.27;10.90;;;;;;;0.52;100.00;101920.44;1775344;80;26217;-83
2021/01/26 07:19:20;;;;;;;14.27;9.77;;;;;;;0.59;100.00;101921.38;1811092;78;26640;-86
2021/01/26 07:22:02;;;;;;;14.00;10.93;;;;;;;0.67;100.00;101921.26;1775498;80;26201;-85
2021/01/26 07:24:35;;;;;;;16.23;10.20;;;;;;;0.71;100.00;101913.84;1775472;80;26229;-78
2021/01/26 07:27:46;;;;;;;15.03;9.67;;;;;;;0.62;100.00;101919.11;1775246;80;26330;-88
2021/01/26 07:30:21;;;;;;;13.30;9.10;;;;;;;0.77;100.00;101925.34;1809759;78;26201;-86
2021/01/26 07:33:00;;;;;;;14.10;9.70;;;;;;;0.70;100.00;101920.86;1775373;80;26213;-80
2021/01/26 07:35:35;;;;;;;16.43;9.73;;;;;;;0.64;100.00;101925.20;1775178;81;26312;-87
2021/01/26 07:38:09;;;;;;;15.30;9.90;;;;;;;0.72;100.00;101922.89;1811179;79;26300;-84
2021/01/26 07:40:42;;;;;;;14.77;9.33;;;;;;;0.68;100.00;101925.69;1810992;78;26225;-84
2021/01/26 07:43:17;;;;;;;15.20;9.87;;;;;;;0.65;100.00;101934.26;1775341;80;26740;-82
2021/01/26 07:45:57;;;;;;;15.80;10.70;;;;;;;0.68;100.00;101939.37;1775308;81;26383;-85
2021/01/26 07:48:33;;;;;;;13.73;9.20;;;;;;;0.63;100.00;101942.67;1775179;81;26272;-81
2021/01/26 07:51:07;;;;;;;12.63;9.43;;;;;;;0.69;100.00;101942.41;1775264;80;26291;-87
2021/01/26 07:53:43;;;;;;;13.60;9.63;;;;;;;0.83;100.00;101951.94;1775218;81;26213;-86
2021/01/26 07:56:18;;;;;;;14.57;10.37;;;;;;;0.89;100.00;101948.95;1811599;79;26201;-86
2021/01/26 07:58:50;;;;;;;15.07;9.90;;;;;;;0.84;100.00;101950.05;1775515;81;26217;-89
2021/01/26 08:01:25;;;;;;;14.30;9.77;;;;;;;0.74;100.00;101948.14;1775430;80;26284;-86
2021/01/26 08:04:02;;;;;;;15.63;9.57;;;;;;;0.68;100.00;101950.30;1775191;80;26248;-85
2021/01/26 08:06:52;;;;;;;13.77;9.50;;;;;;;0.76;100.00;101946.08;1775212;80;26331;-87
2021/01/26 08:09:38;;;;;;;14.83;9.27;;;;;;;0.80;100.00;101951.48;1775230;81;26201;-86
2021/01/26 08:12:11;;;;;;;14.10;9.23;;;;;;;0.96;100.00;101950.37;1816106;79;26197;-84
2021/01/26 08:14:45;;;;;;;14.03;9.43;;;;;;;0.84;100.00;101953.63;1811115;78;26323;-84
2021/01/26 08:17:17;;;;;;;13.90;9.17;;;;;;;0.90;100.00;101952.84;1775295;80;26205;-84
2021/01/26 08:19:50;;;;;;;12.80;8.63;;;;;;;0.79;100.00;101946.53;1775032;81;26217;-84
2021/01/26 08:22:25;;;;;;;14.40;9.07;;;;;;;0.83;100.00;101949.20;1811838;79;26221;-85
2021/01/26 08:25:06;;;;;;;14.03;8.83;;;;;;;0.82;100.00;101935.19;1775436;80;26241;-85
2021/01/26 08:27:57;;;;;;;10.83;8.60;;;;;;;0.86;100.00;101931.54;1775361;80;26329;-88
2021/01/26 08:30:56;;;;;;;12.70;8.93;;;;;;;0.84;100.00;101934.48;1775192;80;26348;-86
2021/01/26 08:33:28;;;;;;;17.23;9.70;;;;;;;0.99;100.00;101926.72;1775103;80;26236;-86
2021/01/26 08:36:12;;;;;;;9.90;7.60;;;;;;;0.89;100.00;101936.13;1775164;80;26220;-86
2021/01/26 08:38:48;;;;;;;13.00;8.63;;;;;;;0.97;100.00;101935.14;1775229;80;26282;-83
2021/01/26 08:41:55;;;;;;;12.07;9.00;;;;;;;1.04;100.00;101925.61;1775035;80;26271;-84
2021/01/26 08:44:59;;;;;;;14.80;8.53;;;;;;;0.98;100.00;101920.94;1795117;80;26200;-83
2021/01/26 08:47:54;;;;;;;15.47;9.03;;;;;;;0.88;100.00;101909.80;1791592;80;26274;-86
2021/01/26 08:50:29;;;;;;;17.47;9.97;;;;;;;0.94;100.00;101909.55;1787325;80;26290;-79
2021/01/26 08:53:18;;;;;;;12.57;9.30;;;;;;;1.12;100.00;101922.73;1787179;80;26297;-80
2021/01/26 08:55:51;;;;;;;15.43;10.43;;;;;;;1.37;100.00;101936.31;1787265;80;26216;-81
2021/01/26 08:58:41;;;;;;;12.70;10.10;;;;;;;1.31;100.00;101939.86;1787367;80;26340;-80
2021/01/26 09:01:14;;;;;;;13.83;10.40;;;;;;;1.30;100.00;101946.38;1787321;80;26236;-79
2021/01/26 09:03:44;;;;;;;13.20;10.37;;;;;;;1.23;100.00;101944.11;1783843;80;26232;-80
2021/01/26 09:06:17;;;;;;;14.50;11.00;;;;;;;1.22;100.00;101932.83;1787313;80;26662;-79
2021/01/26 09:08:53;;;;;;;13.53;10.63;;;;;;;1.27;100.00;101935.31;1783812;80;26387;-78
2021/01/26 09:11:46;;;;;;;17.87;11.53;;;;;;;1.37;100.00;101936.31;1787425;80;26208;-78
2021/01/26 09:14:22;;;;;;;14.33;11.07;;;;;;;1.37;100.00;101933.58;1787387;79;26469;-78
2021/01/26 09:16:58;;;;;;;17.83;11.17;;;;;;;1.67;100.00;101939.17;1787115;80;26690;-78
2021/01/26 09:19:32;;;;;;;16.20;11.40;;;;;;;1.57;100.00;101940.59;1807071;79;26681;-80
2021/01/26 09:22:13;;;;;;;15.13;11.40;;;;;;;1.65;100.00;101952.76;1775327;80;26221;-79
2021/01/26 09:24:44;;;;;;;16.70;11.40;;;;;;;1.77;100.00;101955.27;1775150;80;26310;-80
2021/01/26 09:27:21;;;;;;;14.30;10.43;;;;;;;1.78;100.00;101961.07;1775259;80;26225;-81
2021/01/26 09:30:08;;;;;;;14.80;11.10;;;;;;;1.60;100.00;101952.50;1820023;79;26208;-78
2021/01/26 09:32:40;;;;;;;14.10;10.40;;;;;;;1.56;100.00;101959.42;1772929;81;26340;-77
2021/01/26 09:35:16;;;;;;;17.10;11.90;;;;;;;1.68;100.00;101956.46;1774982;81;26217;-81
2021/01/26 09:37:46;;;;;;;13.33;10.43;;;;;;;1.66;100.00;101962.67;1819699;78;26213;-76
2021/01/26 09:40:17;;;;;;;14.57;10.23;;;;;;;1.73;100.00;101944.39;1774107;81;26209;-77
2021/01/26 09:42:47;;;;;;;16.87;11.13;;;;;;;1.76;100.00;101939.87;1775259;80;26209;-78
2021/01/26 09:45:19;;;;;;;15.00;11.10;;;;;;;1.78;100.00;101932.31;1775177;81;26643;-79
2021/01/26 09:47:50;;;;;;;16.73;11.17;;;;;;;1.86;100.00;101942.25;1775113;81;26315;-76
2021/01/26 09:50:22;;;;;;;13.27;10.83;;;;;;;1.89;100.00;101939.10;1775277;80;26213;-78
2021/01/26 09:52:54;;;;;;;17.20;11.20;;;;;;;1.88;100.00;101939.66;1820503;79;26213;-76
2021/01/26 09:55:25;;;;;;;16.77;11.37;;;;;;;2.14;100.00;101944.44;1819756;79;26259;-76
2021/01/26 09:57:56;;;;;;;16.67;10.67;;;;;;;1.96;100.00;101938.12;1773572;81;26663;-76
2021/01/26 10:00:30;;;;;;;14.83;10.67;;;;;;;2.01;100.00;101936.14;1775167;80;26291;-76
2021/01/26 10:03:02;;;;;;;15.83;11.30;;;;;;;2.16;100.00;101927.25;1814337;79;26745;-78
2021/01/26 10:05:32;;;;;;;15.63;9.97;;;;;;;2.26;100.00;101924.98;1775665;81;26287;-76
2021/01/26 10:08:14;;;;;;;12.33;9.73;;;;;;;2.45;100.00;101927.46;1775170;80;26720;-76
2021/01/26 10:10:44;;;;;;;17.37;9.73;;;;;;;2.32;100.00;101929.63;1819784;79;26605;-78
2021/01/26 10:13:43;;;;;;;16.20;10.93;;;;;;;2.27;100.00;101937.62;1773051;81;26213;-77
2021/01/26 10:16:35;;;;;;;15.90;10.67;;;;;;;2.34;100.00;101932.18;1762758;79;26703;-77
2021/01/26 10:19:13;;;;;;;15.40;9.97;;;;;;;2.37;100.00;101942.73;1773076;81;26200;-81
2021/01/26 10:21:43;;;;;;;12.60;9.97;;;;;;;2.55;100.00;101929.30;1775027;81;26656;-77
2021/01/26 10:24:17;;;;;;;11.50;9.43;;;;;;;2.66;100.00;101926.80;1775245;80;26237;-77
2021/01/26 10:26:47;;;;;;;13.50;8.73;;;;;;;2.75;100.00;101921.44;1774410;80;26349;-78
2021/01/26 10:29:35;;;;;;;10.27;7.93;;;;;;;2.68;100.00;101919.22;1775164;80;26280;-81
2021/01/26 10:32:07;;;;;;;12.83;8.23;;;;;;;2.89;100.00;101908.59;1820605;79;26216;-82
2021/01/26 10:34:47;;;;;;;11.87;8.43;;;;;;;2.94;100.00;101908.82;1773234;81;26326;-81
2021/01/26 10:37:31;;;;;;;13.80;7.90;;;;;;;3.19;100.00;101911.79;1766853;81;26282;-81
2021/01/26 10:40:13;;;;;;;10.20;6.97;;;;;;;3.05;100.00;101929.30;1773005;81;26721;-78
2021/01/26 10:42:47;;;;;;;7.73;6.30;;;;;;;3.09;100.00;101908.60;1774667;80;26336;-79
2021/01/26 10:45:18;;;;;;;12.20;6.13;;;;;;;3.39;100.00;101911.78;1774025;80;26295;-79
2021/01/26 10:47:49;;;;;;;10.43;6.40;;;;;;;3.42;100.00;101914.97;1775140;80;26298;-79
2021/01/26 10:50:28;;;;;;;8.70;6.00;;;;;;;3.45;100.00;101913.69;1820426;79;26295;-79
2021/01/26 10:52:58;;;;;;;8.70;6.10;;;;;;;3.49;100.00;101914.95;1774882;81;26344;-78
2021/01/26 10:55:28;;;;;;;13.00;7.97;;;;;;;3.63;100.00;101891.91;1775122;80;26403;-78
2021/01/26 10:57:58;;;;;;;14.33;7.87;;;;;;;3.54;100.00;101887.69;1775222;80;26256;-78
2021/01/26 11:00:28;;;;;;;10.83;6.90;;;;;;;3.80;100.00;101873.91;1775130;80;26259;-81
2021/01/26 11:02:59;;;;;;;8.73;6.57;;;;;;;3.71;100.00;101872.97;1775251;80;26290;-86
2021/01/26 11:05:28;;;;;;;10.17;7.30;;;;;;;3.72;100.00;101871.92;1775274;80;26309;-82
2021/01/26 11:07:58;;;;;;;11.40;8.03;;;;;;;3.78;100.00;101871.89;1775042;80;26293;-81
2021/01/26 11:10:30;;;;;;;11.77;8.27;;;;;;;3.84;100.00;101857.30;1815357;79;26230;-81
2021/01/26 11:13:00;;;;;;;9.73;7.33;;;;;;;3.72;100.00;101862.30;1775307;81;26209;-83
2021/01/26 11:15:31;;;;;;;10.27;7.70;;;;;;;3.94;100.00;101859.03;1819004;77;26379;-83
2021/01/26 11:18:01;;;;;;;8.43;6.53;;;;;;;3.86;100.00;101863.92;1775473;81;26209;-83
2021/01/26 11:20:31;;;;;;;6.90;6.10;;;;;;;3.78;100.00;101858.14;1811155;78;26645;-83
2021/01/26 11:23:01;;;;;;;7.07;5.73;;;;;;;3.98;100.00;101848.48;1775374;81;26658;-84
2021/01/26 11:25:31;;;;;;;9.07;6.20;;;;;;;3.95;100.00;101833.77;1775233;80;26339;-86
2021/01/26 11:28:01;;;;;;;9.93;7.40;;;;;;;3.86;100.00;101831.80;1775136;80;26287;-84
2021/01/26 11:30:31;;;;;;;11.73;8.97;;;;;;;3.92;100.00;101824.59;1775289;80;26264;-83
2021/01/26 11:33:02;;;;;;;12.07;8.97;;;;;;;3.97;100.00;101827.54;1775106;80;26216;-82
2021/01/26 11:35:33;;;;;;;11.80;7.77;;;;;;;4.09;100.00;101820.29;1775131;80;26205;-83
2021/01/26 11:38:03;;;;;;;8.60;6.37;;;;;;;3.95;100.00;101822.25;1820332;79;26216;-81
2021/01/26 11:40:33;;;;;;;8.27;7.00;;;;;;;3.87;100.00;101812.03;1773155;81;26322;-81
2021/01/26 11:43:03;;;;;;;11.27;7.63;;;;;;;4.07;100.00;101802.63;1775201;80;26651;-81
2021/01/26 11:45:36;;;;;;;8.03;6.97;;;;;;;3.95;100.00;101803.53;1775162;80;26638;-84
2021/01/26 11:48:11;;;;;;;12.30;9.33;;;;;;;4.14;100.00;101801.23;1814798;79;26208;-81
2021/01/26 11:50:42;;;;;;;10.60;8.67;;;;;;;4.18;100.00;101798.36;1775343;81;26717;-82
2021/01/26 11:53:15;;;;;;;10.70;8.27;;;;;;;4.13;100.00;101801.77;1814793;78;26640;-81